Time;durP1;ratioP1;P1;durP2;ratioP2;P2;SDS_P1;SDS_P2;PMS_P1;PMS_P2;Temp;Humidity;BMP_temperature;BMP_pressure;BME280_temperature;BME280_humidity;BME280_pressure;Samples;Min_cycle;Max_cycle;Signal;HPM_P1;HPM_P2
2022/03/08 00:02:09;;;;;;;;;32.00;23.25;;;;;3.44;48.71;101587.47;5012736;28;45471;-72
2022/03/08 00:04:34;;;;;;;;;39.75;33.50;;;;;3.43;48.63;101573.63;5010987;28;45240;-72
2022/03/08 00:07:00;;;;;;;;;34.50;28.75;;;;;3.40;48.58;101582.28;5012903;28;45961;-72
2022/03/08 00:09:26;;;;;;;;;32.75;25.50;;;;;3.39;48.22;101580.56;5011259;28;45532;-72
2022/03/08 00:11:52;;;;;;;;;37.50;30.75;;;;;3.37;48.81;101576.22;5013976;28;45383;-72
2022/03/08 00:14:17;;;;;;;;;35.50;28.25;;;;;3.36;48.45;101574.50;5013676;28;46317;-72
2022/03/08 00:16:43;;;;;;;;;27.25;25.75;;;;;3.33;48.67;101575.34;5012810;28;45638;-72
2022/03/08 00:19:08;;;;;;;;;30.75;20.50;;;;;3.34;48.88;101565.81;5014106;28;45555;-72
2022/03/08 00:21:34;;;;;;;;;41.00;31.25;;;;;3.32;48.89;101572.75;5013987;28;45849;-72
2022/03/08 00:23:59;;;;;;;;;30.00;22.00;;;;;3.30;48.92;101566.69;5013253;28;46600;-72
2022/03/08 00:26:25;;;;;;;;;38.25;31.00;;;;;3.27;48.93;101569.28;5013574;28;54403;-72
2022/03/08 00:28:50;;;;;;;;;42.33;30.00;;;;;3.24;48.93;101572.75;5016021;28;45410;-72
2022/03/08 00:31:15;;;;;;;;;36.50;27.50;;;;;3.21;48.84;101570.16;5016135;28;45422;-72
2022/03/08 00:33:41;;;;;;;;;41.00;30.67;;;;;3.19;49.29;101571.91;5014331;28;46122;-72
2022/03/08 00:36:07;;;;;;;;;37.00;28.50;;;;;3.18;49.30;101574.47;5016723;28;45468;-72
2022/03/08 00:38:32;;;;;;;;;24.25;20.50;;;;;3.16;49.15;101571.88;5015553;28;45499;-72
2022/03/08 00:40:57;;;;;;;;;41.00;29.75;;;;;3.14;49.46;101571.03;5012688;28;45455;-72
2022/03/08 00:43:23;;;;;;;;;33.50;29.25;;;;;3.10;49.54;101569.28;5015588;28;45284;-72
2022/03/08 00:45:48;;;;;;;;;38.33;31.00;;;;;3.08;49.43;101571.88;5014193;28;45413;-72
2022/03/08 00:48:13;;;;;;;;;40.00;30.00;;;;;3.08;49.31;101568.41;5013439;28;45470;-72
2022/03/08 00:50:39;;;;;;;;;35.25;24.25;;;;;3.05;49.45;101565.81;5012883;28;45551;-72
2022/03/08 00:53:05;;;;;;;;;27.25;21.00;;;;;3.01;49.80;101567.53;5017061;28;46189;-72
2022/03/08 00:55:32;;;;;;;;;21.75;21.75;;;;;2.98;49.74;101571.88;5015845;28;45403;-72
2022/03/08 00:57:58;;;;;;;;;36.00;29.00;;;;;2.94;49.65;101564.94;5017368;28;45313;-72
2022/03/08 01:00:25;;;;;;;;;32.25;28.75;;;;;2.95;49.93;101569.25;5012782;28;45274;-72
2022/03/08 01:02:51;;;;;;;;;31.75;26.25;;;;;2.93;49.88;101563.22;5014198;28;46422;-72
2022/03/08 01:05:16;;;;;;;;;36.00;26.00;;;;;2.92;49.70;101564.91;5012698;28;45698;-72
2022/03/08 01:07:43;;;;;;;;;32.00;24.33;;;;;2.92;50.09;101556.25;5015119;28;45641;-72
2022/03/08 01:10:11;;;;;;;;;36.00;26.25;;;;;2.90;50.06;101552.81;5015017;28;45401;-72
2022/03/08 01:12:36;;;;;;;;;36.50;26.25;;;;;2.90;50.09;101552.81;5012863;28;46175;-72
2022/03/08 01:15:04;;;;;;;;;32.50;26.00;;;;;2.87;49.90;101553.66;5011736;28;45877;-72
2022/03/08 01:17:29;;;;;;;;;35.00;24.50;;;;;2.85;50.17;101548.47;5012361;28;45809;-72
2022/03/08 01:19:55;;;;;;;;;31.00;25.75;;;;;2.83;49.99;101547.59;5012092;28;45802;-72
2022/03/08 01:22:20;;;;;;;;;30.25;20.00;;;;;2.82;50.09;101551.06;5016520;28;45380;-71
2022/03/08 01:24:46;;;;;;;;;35.75;25.50;;;;;2.80;50.21;101545.00;5016794;28;45430;-72
2022/03/08 01:27:11;;;;;;;;;29.00;26.75;;;;;2.79;49.94;101545.00;5012608;28;45290;-71
2022/03/08 01:29:37;;;;;;;;;35.25;34.00;;;;;2.73;50.30;101538.06;5011947;28;45451;-72
2022/03/08 01:32:03;;;;;;;;;34.75;26.50;;;;;2.76;50.40;101542.38;5015182;28;45523;-72
2022/03/08 01:34:28;;;;;;;;;31.75;21.50;;;;;2.74;50.41;101541.53;5013803;28;45623;-72
2022/03/08 01:36:54;;;;;;;;;37.25;27.75;;;;;2.69;50.68;101541.50;5014657;28;45293;-72
2022/03/08 01:39:20;;;;;;;;;34.50;23.00;;;;;2.69;50.45;101536.31;5011940;28;45641;-72
2022/03/08 01:41:46;;;;;;;;;39.75;26.75;;;;;2.67;50.58;101538.06;5014269;28;46242;-72
2022/03/08 01:44:12;;;;;;;;;37.00;28.75;;;;;2.67;50.61;101537.19;5011203;28;55017;-72
2022/03/08 01:46:37;;;;;;;;;31.75;28.00;;;;;2.66;50.48;101544.09;5015893;28;45523;-72
2022/03/08 01:49:06;;;;;;;;;29.25;24.75;;;;;2.64;51.00;101535.44;5016236;28;45463;-72
2022/03/08 01:51:33;;;;;;;;;38.50;26.25;;;;;2.63;50.71;101533.72;5012632;28;45592;-72
2022/03/08 01:53:59;;;;;;;;;39.00;22.75;;;;;2.63;50.53;101532.84;5011820;28;45764;-72
2022/03/08 01:56:24;;;;;;;;;34.25;33.00;;;;;2.60;50.88;101529.38;5014018;28;45409;-72
2022/03/08 01:58:49;;;;;;;;;34.25;26.00;;;;;2.60;50.84;101525.91;5011158;28;45395;-72
2022/03/08 02:01:15;;;;;;;;;36.00;27.33;;;;;2.60;50.86;101528.50;5015192;28;46260;-72
2022/03/08 02:03:40;;;;;;;;;40.75;32.25;;;;;2.58;51.12;101527.66;5014255;28;45491;-72
2022/03/08 02:06:06;;;;;;;;;31.50;28.25;;;;;2.56;50.83;101522.47;5015528;28;45624;-72
2022/03/08 02:08:32;;;;;;;;;36.75;28.25;;;;;2.56;51.06;101527.66;5014756;28;45715;-72
2022/03/08 02:10:57;;;;;;;;;32.00;30.50;;;;;2.54;51.11;101529.34;5014070;28;45580;-72
2022/03/08 02:13:25;;;;;;;;;30.25;23.50;;;;;2.54;50.86;101533.69;5013651;28;45453;-72
2022/03/08 02:15:51;;;;;;;;;45.50;34.00;;;;;2.52;51.36;101523.31;5013501;28;45412;-72
2022/03/08 02:18:17;;;;;;;;;35.00;29.50;;;;;2.52;51.19;101528.50;5015623;28;45554;-72
2022/03/08 02:20:43;;;;;;;;;26.50;23.75;;;;;2.51;51.00;101529.38;5011454;28;46373;-72
2022/03/08 02:23:08;;;;;;;;;35.67;27.33;;;;;2.49;51.06;101523.28;5015407;28;45439;-72
2022/03/08 02:25:34;;;;;;;;;38.25;28.25;;;;;2.49;51.07;101525.03;5012583;28;45391;-72
2022/03/08 02:27:59;;;;;;;;;36.75;28.75;;;;;2.48;51.30;101521.56;5015022;28;45563;-72
2022/03/08 02:30:26;;;;;;;;;30.50;26.25;;;;;2.47;51.48;101521.56;5015930;28;46206;-72
2022/03/08 02:32:52;;;;;;;;;38.00;30.00;;;;;2.43;51.72;101512.91;5015055;28;45483;-72
2022/03/08 02:35:20;;;;;;;;;38.00;27.25;;;;;2.41;51.55;101511.19;5015201;28;45322;-72
2022/03/08 02:37:52;;;;;;;;;29.75;24.00;;;;;2.39;51.58;101510.28;5013314;28;45428;-72
2022/03/08 02:40:21;;;;;;;;;36.75;25.50;;;;;2.38;51.76;101506.84;5021212;28;47150;-72
2022/03/08 02:42:46;;;;;;;;;33.25;29.25;;;;;2.38;51.83;101512.03;5011684;28;45325;-72
2022/03/08 02:45:13;;;;;;;;;38.00;23.00;;;;;2.37;51.84;101505.09;5011473;28;45290;-72
2022/03/08 02:47:39;;;;;;;;;37.75;28.75;;;;;2.37;52.09;101504.25;5014544;28;45523;-71
2022/03/08 02:50:07;;;;;;;;;45.75;32.75;;;;;2.37;51.67;101506.84;5010466;28;46022;-71
2022/03/08 02:52:33;;;;;;;;;36.25;28.00;;;;;2.35;51.97;101499.06;5012061;28;45385;-71
2022/03/08 02:54:59;;;;;;;;;37.75;33.50;;;;;2.34;51.72;101502.50;5014440;28;45380;-71
2022/03/08 02:57:24;;;;;;;;;31.00;26.75;;;;;2.34;51.89;101494.72;5011055;28;45492;-71
2022/03/08 02:59:49;;;;;;;;;33.33;29.00;;;;;2.34;52.09;101492.13;5010389;28;46981;-71
2022/03/08 03:02:15;;;;;;;;;36.25;27.25;;;;;2.33;51.99;101490.38;5013051;28;45384;-71
2022/03/08 03:04:40;;;;;;;;;50.25;28.75;;;;;2.32;51.96;101486.06;5010897;28;45406;-71
2022/03/08 03:07:05;;;;;;;;;42.75;31.75;;;;;2.31;52.16;101489.53;5014549;28;45352;-71
2022/03/08 03:09:31;;;;;;;;;32.50;24.75;;;;;2.30;52.23;101488.66;5014759;28;46079;-71
2022/03/08 03:11:56;;;;;;;;;38.00;27.00;;;;;2.28;52.01;101477.41;5010068;28;45493;-71
2022/03/08 03:14:21;;;;;;;;;35.33;31.67;;;;;2.24;52.16;101480.84;5009965;28;45517;-71
2022/03/08 03:16:47;;;;;;;;;32.67;26.67;;;;;2.25;52.16;101480.00;5012710;28;45491;-71
2022/03/08 03:19:12;;;;;;;;;20.33;17.67;;;;;2.24;52.24;101477.38;5014477;28;46186;-71
2022/03/08 03:21:37;;;;;;;;;34.50;22.75;;;;;2.20;52.44;101473.94;5015322;28;45425;-71
2022/03/08 03:24:03;;;;;;;;;31.75;24.25;;;;;2.20;52.44;101475.66;5010596;28;45357;-71
2022/03/08 03:26:29;;;;;;;;;40.75;25.75;;;;;2.19;52.49;101477.38;5010130;28;45909;-71
2022/03/08 03:28:54;;;;;;;;;42.50;31.50;;;;;2.17;52.37;101479.09;5012281;28;46126;-71
2022/03/08 03:31:20;;;;;;;;;35.00;25.00;;;;;2.16;52.38;101479.09;5013215;28;45408;-71
2022/03/08 03:33:45;;;;;;;;;34.00;26.00;;;;;2.15;52.43;101475.66;5011556;28;47037;-71
2022/03/08 03:36:11;;;;;;;;;41.00;31.75;;;;;2.14;52.55;101473.94;5013901;28;45386;-71
2022/03/08 03:38:36;;;;;;;;;40.75;29.50;;;;;2.14;52.44;101473.94;5013132;28;46402;-71
2022/03/08 03:41:02;;;;;;;;;33.25;23.25;;;;;2.12;52.60;101466.97;5009680;28;45472;-71
2022/03/08 03:43:27;;;;;;;;;40.50;30.75;;;;;2.09;52.71;101467.84;5013929;28;45755;-71
2022/03/08 03:45:53;;;;;;;;;41.75;28.50;;;;;2.09;52.82;101465.25;5014816;28;45563;-71
2022/03/08 03:48:18;;;;;;;;;38.50;28.75;;;;;2.06;52.67;101465.25;5013595;28;46141;-71
2022/03/08 03:50:44;;;;;;;;;33.25;26.75;;;;;2.06;52.98;101452.28;5011101;28;45538;-71
2022/03/08 03:53:09;;;;;;;;;35.50;26.25;;;;;2.05;52.70;101456.59;5009973;28;45547;-71
2022/03/08 03:55:34;;;;;;;;;43.00;31.33;;;;;2.03;53.01;101455.72;5009645;28;45473;-71
2022/03/08 03:58:00;;;;;;;;;39.25;27.50;;;;;2.01;52.94;101451.41;5012782;28;46707;-71
2022/03/08 04:00:26;;;;;;;;;40.00;33.50;;;;;2.00;52.76;101460.03;5010528;28;45353;-71
2022/03/08 04:02:52;;;;;;;;;36.75;28.50;;;;;1.98;52.95;101465.19;5012285;28;45324;-71
2022/03/08 04:05:17;;;;;;;;;32.75;26.00;;;;;1.97;52.98;101462.59;5009921;28;45302;-71
2022/03/08 04:07:42;;;;;;;;;35.00;29.00;;;;;1.95;53.03;101462.59;5012323;28;49329;-71
2022/03/08 04:10:10;;;;;;;;;36.75;27.75;;;;;1.94;53.14;101468.66;5013934;28;45635;-71
2022/03/08 04:12:35;;;;;;;;;34.00;25.00;;;;;1.94;52.84;101468.66;5014926;28;46385;-71
2022/03/08 04:15:01;;;;;;;;;32.25;29.25;;;;;1.92;53.00;101462.59;5011596;28;45384;-71
2022/03/08 04:17:26;;;;;;;;;33.50;26.00;;;;;1.90;53.19;101466.91;4995572;28;46075;-71
2022/03/08 04:19:52;;;;;;;;;30.50;22.00;;;;;1.89;53.28;101456.53;5009461;28;45455;-71
2022/03/08 04:22:17;;;;;;;;;29.67;26.67;;;;;1.88;53.25;101457.38;5012935;28;47822;-71
2022/03/08 04:24:42;;;;;;;;;37.25;33.50;;;;;1.88;53.12;101466.03;5010426;28;45404;-71
2022/03/08 04:27:08;;;;;;;;;29.50;23.00;;;;;1.84;53.27;101461.69;5009547;28;45518;-71
2022/03/08 04:29:33;;;;;;;;;35.75;32.50;;;;;1.85;53.52;101465.16;5011598;28;45418;-71
2022/03/08 04:31:58;;;;;;;;;31.00;28.00;;;;;1.83;53.21;101468.63;5013517;28;45499;-71
2022/03/08 04:34:24;;;;;;;;;36.00;30.25;;;;;1.84;53.24;101461.69;5011902;28;45517;-71
2022/03/08 04:36:49;;;;;;;;;49.25;27.75;;;;;1.85;53.36;101458.25;5011846;28;46322;-71
2022/03/08 04:39:15;;;;;;;;;31.25;25.75;;;;;1.83;53.41;101465.16;5012551;28;45481;-71
2022/03/08 04:41:40;;;;;;;;;43.25;28.75;;;;;1.81;53.61;101457.34;5011335;28;45312;-71
2022/03/08 04:44:06;;;;;;;;;31.25;25.00;;;;;1.81;53.39;101459.09;5008750;28;45566;-71
2022/03/08 04:46:31;;;;;;;;;38.75;29.75;;;;;1.81;53.31;101453.91;5010630;28;47196;-71
2022/03/08 04:48:56;;;;;;;;;36.25;29.00;;;;;1.78;53.36;101459.09;5012062;28;45541;-71
2022/03/08 04:51:22;;;;;;;;;40.50;30.25;;;;;1.79;53.62;101458.22;5010336;28;45425;-71
2022/03/08 04:53:47;;;;;;;;;37.75;30.50;;;;;1.79;53.67;101453.03;5011702;28;45404;-71
2022/03/08 04:56:12;;;;;;;;;42.25;35.75;;;;;1.76;53.29;101451.28;5008691;28;46022;-70
2022/03/08 04:58:38;;;;;;;;;44.25;29.00;;;;;1.75;53.68;101446.97;5010017;28;45828;-71
2022/03/08 05:01:03;;;;;;;;;33.00;22.75;;;;;1.75;53.74;101448.69;5012966;28;45428;-71
2022/03/08 05:03:29;;;;;;;;;37.75;30.00;;;;;1.75;53.76;101446.09;5011794;28;45308;-71
2022/03/08 05:05:54;;;;;;;;;38.67;25.00;;;;;1.70;53.59;101432.25;5013818;28;45998;-71
2022/03/08 05:08:19;;;;;;;;;33.00;25.50;;;;;1.74;53.70;101440.06;5014078;28;45952;-71
2022/03/08 05:10:45;;;;;;;;;37.25;31.00;;;;;1.72;53.70;101441.78;5012126;28;45334;-71
2022/03/08 05:13:10;;;;;;;;;37.00;26.00;;;;;1.74;53.85;101446.97;5017027;28;45206;-71
2022/03/08 05:15:36;;;;;;;;;27.75;23.75;;;;;1.74;54.16;101450.41;5015272;28;46024;-71
2022/03/08 05:18:02;;;;;;;;;37.00;30.00;;;;;1.72;54.16;101444.38;5015046;28;45473;-70
2022/03/08 05:20:27;;;;;;;;;35.00;28.00;;;;;1.69;54.04;101446.09;5012203;28;45635;-70
2022/03/08 05:22:52;;;;;;;;;35.00;25.00;;;;;1.68;54.05;101445.22;5011425;28;45448;-70
2022/03/08 05:25:18;;;;;;;;;40.50;33.00;;;;;1.67;54.44;101443.50;5015262;28;45482;-70
2022/03/08 05:27:43;;;;;;;;;41.25;30.00;;;;;1.65;54.25;101445.19;5013432;28;45627;-70
2022/03/08 05:30:09;;;;;;;;;26.00;19.25;;;;;1.64;54.26;101446.06;5012633;28;45488;-70
2022/03/08 05:32:35;;;;;;;;;35.50;28.25;;;;;1.65;54.37;101454.69;5011703;28;45570;-70
2022/03/08 05:35:00;;;;;;;;;32.00;16.75;;;;;1.61;54.53;101451.22;5015423;28;45518;-70
2022/03/08 05:37:25;;;;;;;;;32.25;27.50;;;;;1.62;54.43;101450.38;5014846;28;45345;-70
2022/03/08 05:39:51;;;;;;;;;33.75;28.50;;;;;1.61;54.27;101446.03;5016230;28;45544;-70
2022/03/08 05:42:16;;;;;;;;;34.75;29.25;;;;;1.60;54.42;101443.44;5014333;28;45475;-70
2022/03/08 05:44:41;;;;;;;;;38.50;32.50;;;;;1.61;54.60;101442.56;5011834;28;46035;-72
2022/03/08 05:47:07;;;;;;;;;35.00;26.67;;;;;1.61;54.81;101434.78;5011395;28;52650;-71
2022/03/08 05:49:32;;;;;;;;;38.00;29.25;;;;;1.60;54.73;101441.72;5015355;28;45395;-71
2022/03/08 05:51:58;;;;;;;;;41.00;31.33;;;;;1.61;54.67;101439.97;5016099;28;45486;-71
2022/03/08 05:54:23;;;;;;;;;35.50;30.75;;;;;1.60;54.71;101446.03;5015948;28;46899;-71
2022/03/08 05:56:48;;;;;;;;;28.00;24.33;;;;;1.60;54.69;101446.03;5011207;28;45627;-71
2022/03/08 05:59:14;;;;;;;;;41.75;29.75;;;;;1.58;54.75;101440.84;5013560;28;45674;-71
2022/03/08 06:01:40;;;;;;;;;30.75;25.50;;;;;1.55;54.99;101448.59;5012516;28;45345;-71
2022/03/08 06:04:05;;;;;;;;;27.00;24.75;;;;;1.56;54.63;101447.72;5015290;28;47081;-71
2022/03/08 06:06:30;;;;;;;;;46.50;29.25;;;;;1.58;54.75;101452.94;5012292;28;45310;-71
2022/03/08 06:08:56;;;;;;;;;42.00;29.50;;;;;1.59;54.89;101459.84;5014492;28;45584;-71
2022/03/08 06:11:21;;;;;;;;;35.75;29.75;;;;;1.60;54.75;101456.38;5011342;28;45410;-71
2022/03/08 06:13:46;;;;;;;;;39.67;30.67;;;;;1.59;54.94;101442.56;5014264;28;45534;-70
2022/03/08 06:16:13;;;;;;;;;40.75;31.25;;;;;1.59;54.83;101442.56;5014589;28;45582;-70
2022/03/08 06:18:39;;;;;;;;;43.50;31.75;;;;;1.62;54.86;101454.66;5014868;28;45356;-71
2022/03/08 06:21:04;;;;;;;;;48.50;36.50;;;;;1.62;54.92;101449.47;5015134;28;45641;-71
2022/03/08 06:23:29;;;;;;;;;41.67;31.67;;;;;1.64;54.61;101453.81;5011368;28;46552;-71
2022/03/08 06:25:55;;;;;;;;;40.50;30.50;;;;;1.65;55.02;101454.69;4993362;28;45482;-71
2022/03/08 06:28:20;;;;;;;;;33.75;29.50;;;;;1.69;54.91;101453.84;5014207;28;45420;-71
2022/03/08 06:30:46;;;;;;;;;40.75;35.25;;;;;1.71;54.90;101452.13;5013221;28;45454;-71
2022/03/08 06:33:12;;;;;;;;;31.75;24.75;;;;;1.71;55.03;101453.00;5014732;28;48968;-71
2022/03/08 06:35:37;;;;;;;;;39.00;33.75;;;;;1.75;55.09;101461.66;5010682;28;45409;-71
2022/03/08 06:38:03;;;;;;;;;41.00;32.50;;;;;1.80;54.73;101466.00;5010812;28;45247;-71
2022/03/08 06:40:28;;;;;;;;;42.75;32.50;;;;;1.83;54.75;101463.44;5012805;28;45255;-71
2022/03/08 06:42:54;;;;;;;;;38.75;30.00;;;;;1.87;54.96;101463.44;5013353;28;46111;-71
2022/03/08 06:45:19;;;;;;;;;39.25;25.75;;;;;1.92;54.96;101466.91;5015532;28;45392;-71
2022/03/08 06:47:44;;;;;;;;;42.75;34.75;;;;;1.94;54.81;101458.28;5014294;28;45406;-71
2022/03/08 06:50:10;;;;;;;;;49.50;34.00;;;;;2.01;54.90;101456.56;5012546;28;47161;-71
2022/03/08 06:52:35;;;;;;;;;46.75;32.25;;;;;2.08;54.85;101460.91;5012249;28;46119;-71
2022/03/08 06:55:01;;;;;;;;;47.25;33.00;;;;;2.12;54.70;101457.47;5014468;28;45680;-71
2022/03/08 06:57:26;;;;;;;;;37.50;33.25;;;;;2.17;55.08;101460.94;5015670;28;45287;-71
2022/03/08 06:59:52;;;;;;;;;38.67;28.67;;;;;2.25;54.91;101461.84;5014376;28;45475;-71
2022/03/08 07:02:17;;;;;;;;;45.00;32.75;;;;;2.33;55.10;101459.25;5012286;28;47114;-71
2022/03/08 07:04:43;;;;;;;;;46.25;35.50;;;;;2.39;55.19;101459.28;5011379;28;45428;-71
2022/03/08 07:07:08;;;;;;;;;45.00;33.67;;;;;2.46;55.09;101457.59;5015394;28;45404;-71
2022/03/08 07:09:33;;;;;;;;;47.00;32.75;;;;;2.53;54.70;101454.13;5011546;28;45491;-71
2022/03/08 07:11:59;;;;;;;;;38.00;32.25;;;;;2.62;54.61;101467.13;5013658;28;46367;-71
2022/03/08 07:14:24;;;;;;;;;26.25;19.25;;;;;2.70;54.08;101460.19;5010913;28;45488;-69
2022/03/08 07:16:50;;;;;;;;;48.33;34.67;;;;;2.81;54.18;101465.38;5012401;28;47248;-70
2022/03/08 07:19:16;;;;;;;;;49.00;37.75;;;;;2.93;53.78;101467.16;5014157;28;45490;-70
2022/03/08 07:21:42;;;;;;;;;51.00;37.25;;;;;3.07;53.68;101468.84;5011532;28;47055;-71
2022/03/08 07:24:08;;;;;;;;;46.50;35.75;;;;;3.20;53.67;101468.88;5014535;28;45321;-71
2022/03/08 07:26:33;;;;;;;;;52.50;39.00;;;;;3.42;53.56;101461.91;5012650;28;45466;-71
2022/03/08 07:28:59;;;;;;;;;44.50;31.25;;;;;3.88;53.05;101463.50;5013181;28;45376;-71
2022/03/08 07:31:24;;;;;;;;;34.00;27.75;;;;;4.41;52.43;101464.09;5014012;28;46183;-71
2022/03/08 07:33:51;;;;;;;;;41.33;31.00;;;;;5.14;51.73;101455.75;5014955;28;45530;-71
2022/03/08 07:36:16;;;;;;;;;45.75;30.00;;;;;5.96;50.37;101456.63;5010995;28;45373;-71
2022/03/08 07:38:41;;;;;;;;;49.00;38.50;;;;;6.61;50.30;101464.44;5019666;28;45344;-71
2022/03/08 07:41:07;;;;;;;;;52.33;36.67;;;;;7.50;49.22;101457.72;4994655;28;46155;-71
2022/03/08 07:43:34;;;;;;;;;56.67;40.33;;;;;8.24;48.00;101465.81;5011707;28;45510;-71
2022/03/08 07:46:00;;;;;;;;;45.50;37.25;;;;;8.72;46.76;101467.38;5013492;28;45266;-71
2022/03/08 07:48:26;;;;;;;;;50.50;41.25;;;;;9.37;46.45;101462.28;5014181;28;45540;-71
2022/03/08 07:50:51;;;;;;;;;48.25;40.25;;;;;10.43;46.54;101470.66;5009681;28;45467;-71
2022/03/08 07:53:16;;;;;;;;;47.67;38.33;;;;;11.58;44.93;101469.50;5013979;28;45416;-71
2022/03/08 07:55:41;;;;;;;;;58.50;41.50;;;;;13.12;45.29;101460.06;5013917;28;45544;-71
2022/03/08 07:58:11;;;;;;;;;47.00;38.25;;;;;14.43;42.04;101472.72;4996634;28;45443;-71
2022/03/08 08:00:37;;;;;;;;;48.25;38.50;;;;;15.38;40.81;101463.63;5010287;28;47123;-71
2022/03/08 08:03:03;;;;;;;;;58.00;41.75;;;;;15.80;39.03;101466.78;5013820;28;45566;-71
2022/03/08 08:05:29;;;;;;;;;50.00;38.75;;;;;15.95;39.38;101457.16;4996554;28;45683;-71
2022/03/08 08:07:54;;;;;;;;;54.00;38.25;;;;;16.70;38.29;101459.16;5009283;28;45456;-72
2022/03/08 08:10:19;;;;;;;;;47.75;34.75;;;;;17.72;35.85;101465.56;4995300;28;47137;-71
2022/03/08 08:12:45;;;;;;;;;55.75;39.00;;;;;17.79;35.00;101460.75;5014179;28;47489;-71
2022/03/08 08:15:11;;;;;;;;;54.75;41.25;;;;;18.55;35.93;101463.03;5013416;28;45447;-72
2022/03/08 08:17:37;;;;;;;;;52.00;38.75;;;;;19.47;34.67;101463.09;5013737;28;45591;-72
2022/03/08 08:20:03;;;;;;;;;47.00;36.00;;;;;20.59;33.47;101454.25;5009528;28;45791;-71
2022/03/08 08:22:29;;;;;;;;;57.25;42.75;;;;;22.03;32.54;101451.25;5013244;28;45788;-71
2022/03/08 08:24:54;;;;;;;;;45.25;37.25;;;;;23.35;31.04;101449.28;5013853;28;45551;-71
2022/03/08 08:27:19;;;;;;;;;46.25;36.25;;;;;24.49;30.85;101455.47;5013019;28;45623;-71
2022/03/08 08:29:45;;;;;;;;;47.25;36.50;;;;;25.20;28.96;101453.38;5012602;28;46027;-71
2022/03/08 08:32:11;;;;;;;;;47.50;37.50;;;;;25.77;28.77;101452.41;5008455;28;45527;-71
2022/03/08 08:34:36;;;;;;;;;49.50;38.50;;;;;25.98;28.69;101454.03;5009988;28;45539;-71
2022/03/08 08:37:02;;;;;;;;;49.75;37.50;;;;;26.34;27.44;101464.94;5012777;28;45552;-72
2022/03/08 08:39:27;;;;;;;;;50.25;39.75;;;;;27.03;26.45;101461.59;4999300;28;46311;-72
2022/03/08 08:41:52;;;;;;;;;46.00;36.50;;;;;27.65;26.06;101462.44;5009684;28;45558;-72
2022/03/08 08:44:19;;;;;;;;;49.25;39.25;;;;;27.86;25.30;101470.19;5021605;28;45495;-71
2022/03/08 08:46:45;;;;;;;;;53.00;40.25;;;;;28.15;24.79;101471.69;5019879;28;45578;-71
2022/03/08 08:49:10;;;;;;;;;49.25;40.00;;;;;28.82;24.45;101470.72;5017411;28;46196;-70
2022/03/08 08:51:35;;;;;;;;;64.00;50.00;;;;;29.52;24.60;101463.94;5030579;28;45698;-72
2022/03/08 08:54:01;;;;;;;;;52.75;41.00;;;;;29.73;23.33;101466.13;5017937;28;45290;-73
2022/03/08 08:56:26;;;;;;;;;46.25;36.25;;;;;30.14;22.37;101459.56;5019964;28;45389;-70
2022/03/08 08:58:52;;;;;;;;;47.75;39.50;;;;;30.20;22.51;101457.16;5030243;28;45458;-69
2022/03/08 09:01:17;;;;;;;;;53.25;41.25;;;;;30.58;22.26;101464.41;5016016;28;45598;-72
2022/03/08 09:03:42;;;;;;;;;45.50;35.50;;;;;30.86;21.51;101472.91;5016095;28;45419;-71
2022/03/08 09:06:08;;;;;;;;;41.25;36.00;;;;;31.36;21.07;101465.19;5015241;28;56113;-72
2022/03/08 09:08:33;;;;;;;;;49.25;37.00;;;;;31.87;21.54;101460.78;5017231;28;45342;-72
2022/03/08 09:10:58;;;;;;;;;46.50;36.75;;;;;32.27;21.47;101460.47;5019274;28;45364;-72
2022/03/08 09:13:25;;;;;;;;;43.00;36.00;;;;;32.38;19.69;101466.28;5013830;28;45838;-71
2022/03/08 09:15:51;;;;;;;;;45.50;36.50;;;;;32.61;20.63;101465.25;4999404;28;45761;-71
2022/03/08 09:18:17;;;;;;;;;48.25;38.00;;;;;32.78;19.95;101457.69;5011246;28;47010;-71
2022/03/08 09:20:43;;;;;;;;;43.50;34.50;;;;;33.33;19.72;101453.38;5012719;28;45546;-72
2022/03/08 09:23:09;;;;;;;;;48.00;37.00;;;;;33.81;19.99;101459.78;5011869;28;45684;-72
2022/03/08 09:25:36;;;;;;;;;53.50;39.50;;;;;34.28;19.36;101447.22;5013501;28;45656;-72
2022/03/08 09:28:02;;;;;;;;;48.50;38.50;;;;;34.51;18.64;101452.38;5012327;28;47174;-71
2022/03/08 09:30:28;;;;;;;;;47.50;36.75;;;;;34.23;18.70;101447.00;5014124;28;45423;-71
2022/03/08 09:32:56;;;;;;;;;42.50;35.75;;;;;34.07;18.33;101450.09;5013959;28;45767;-72
2022/03/08 09:35:21;;;;;;;;;44.75;36.00;;;;;34.24;18.83;101449.53;5013447;28;45789;-71
2022/03/08 09:37:47;;;;;;;;;48.50;37.00;;;;;34.58;17.86;101449.66;5012367;28;46281;-72
2022/03/08 09:40:12;;;;;;;;;80.33;66.33;;;;;34.71;17.43;101452.41;5013296;28;45616;-71
2022/03/08 09:42:38;;;;;;;;;46.75;37.00;;;;;34.54;17.33;101451.97;5011082;28;45896;-70
2022/03/08 09:45:03;;;;;;;;;49.50;37.25;;;;;34.44;17.39;101446.03;5012806;28;48673;-72
2022/03/08 09:47:29;;;;;;;;;49.25;38.75;;;;;34.40;16.95;101456.50;5012812;28;46219;-70
2022/03/08 09:49:54;;;;;;;;;50.00;39.00;;;;;34.72;16.92;101446.75;5012424;28;45515;-72
2022/03/08 09:52:20;;;;;;;;;45.50;36.00;;;;;35.02;17.07;101439.00;5012273;28;45690;-69
2022/03/08 09:54:46;;;;;;;;;50.50;39.00;;;;;35.06;16.49;101433.13;5012777;28;45737;-71
2022/03/08 09:57:13;;;;;;;;;49.50;40.00;;;;;34.46;16.70;101433.91;5012502;28;46166;-70
2022/03/08 09:59:40;;;;;;;;;49.75;38.50;;;;;33.82;17.27;101431.47;5010536;28;45542;-72
2022/03/08 10:02:05;;;;;;;;;49.00;39.25;;;;;33.31;16.75;101434.53;5016530;28;45416;-72
2022/03/08 10:04:31;;;;;;;;;50.00;39.00;;;;;32.29;17.85;101434.75;5024180;28;45372;-72
2022/03/08 10:06:57;;;;;;;;;49.50;37.50;;;;;31.48;17.81;101439.28;5015802;28;45574;-72
2022/03/08 10:09:23;;;;;;;;;51.00;39.50;;;;;30.94;18.04;101428.56;5016865;28;45396;-70
2022/03/08 10:11:55;;;;;;;;;47.00;37.75;;;;;30.78;18.59;101434.97;5018243;28;45467;-73
2022/03/08 10:14:39;;;;;;;;;47.50;38.75;;;;;30.41;18.53;101428.41;5021806;28;45345;-72
2022/03/08 10:17:29;;;;;;;;;53.75;41.00;;;;;29.88;19.17;101421.03;5016087;28;47203;-72
2022/03/08 10:19:54;;;;;;;;;51.25;40.75;;;;;29.75;18.94;101418.00;5018367;28;45467;-72
2022/03/08 10:22:28;;;;;;;;;49.75;39.75;;;;;29.78;19.12;101431.22;5010545;28;45469;-72
2022/03/08 10:25:10;;;;;;;;;50.25;39.00;;;;;29.44;19.28;101413.31;5026305;28;45446;-72
2022/03/08 10:27:35;;;;;;;;;50.00;37.75;;;;;29.60;19.46;101421.47;5016236;28;46258;-69
2022/03/08 10:30:01;;;;;;;;;53.75;41.00;;;;;29.55;19.50;101415.72;5018800;28;45328;-73
2022/03/08 10:32:36;;;;;;;;;55.00;41.00;;;;;29.40;19.83;101412.00;5018637;28;45507;-73
2022/03/08 10:35:01;;;;;;;;;53.25;38.50;;;;;29.25;19.62;101414.56;5011375;28;45834;-73
2022/03/08 10:37:35;;;;;;;;;51.75;38.75;;;;;28.90;19.37;101413.03;5013774;28;46220;-73
2022/03/08 10:40:04;;;;;;;;;53.25;40.75;;;;;28.08;19.96;101417.41;5011162;28;45234;-73
2022/03/08 10:42:33;;;;;;;;;48.75;37.50;;;;;27.19;20.40;101413.19;5012022;28;45468;-73
2022/03/08 10:45:14;;;;;;;;;47.00;35.25;;;;;26.40;20.95;101411.25;5010988;28;45388;-72
2022/03/08 10:47:50;;;;;;;;;48.75;36.50;;;;;25.72;21.04;101419.69;5011058;28;47164;-73
2022/03/08 10:50:18;;;;;;;;;51.50;40.75;;;;;24.94;21.23;101420.81;5011063;28;45487;-72
2022/03/08 10:52:49;;;;;;;;;51.25;40.50;;;;;24.39;21.94;101410.63;5011168;28;45409;-73
2022/03/08 10:55:18;;;;;;;;;52.00;40.25;;;;;23.95;22.03;101419.94;4999560;28;45330;-73
2022/03/08 10:57:55;;;;;;;;;49.50;41.00;;;;;23.53;22.47;101413.78;5012041;28;46072;-73
2022/03/08 11:00:27;;;;;;;;;50.25;38.50;;;;;23.39;22.56;101410.47;5015563;28;45805;-73
2022/03/08 11:02:55;;;;;;;;;50.25;39.75;;;;;23.31;22.69;101404.06;5009995;28;45461;-73
2022/03/08 11:05:23;;;;;;;;;50.25;40.25;;;;;23.15;22.96;101402.69;5014825;28;45462;-72
2022/03/08 11:07:49;;;;;;;;;51.25;38.00;;;;;22.92;23.41;101409.19;5010770;28;46578;-72
2022/03/08 11:10:15;;;;;;;;;48.25;37.75;;;;;22.48;23.20;101400.28;5014107;28;45396;-73